sensor_id;sensor_type;location;lat;lon;timestamp;P1;durP1;ratioP1;P2;durP2;ratioP2
18340;SDS011;9296;48.084;16.352;2023-05-19T00:03:20;10.25;;;6.20;;
18340;SDS011;9296;48.084;16.352;2023-05-19T00:05:47;9.75;;;6.18;;
18340;SDS011;9296;48.084;16.352;2023-05-19T00:08:17;12.52;;;6.40;;
18340;SDS011;9296;48.084;16.352;2023-05-19T00:10:44;10.43;;;5.75;;
18340;SDS011;9296;48.084;16.352;2023-05-19T00:13:12;12.13;;;5.78;;
18340;SDS011;9296;48.084;16.352;2023-05-19T00:18:42;9.20;;;6.38;;
18340;SDS011;9296;48.084;16.352;2023-05-19T00:21:11;10.55;;;6.55;;
18340;SDS011;9296;48.084;16.352;2023-05-19T00:23:40;9.15;;;6.65;;
18340;SDS011;9296;48.084;16.352;2023-05-19T00:26:07;10.82;;;6.57;;
18340;SDS011;9296;48.084;16.352;2023-05-19T00:31:37;12.88;;;6.25;;
18340;SDS011;9296;48.084;16.352;2023-05-19T00:34:04;10.80;;;6.68;;
18340;SDS011;9296;48.084;16.352;2023-05-19T00:36:31;9.85;;;6.40;;
18340;SDS011;9296;48.084;16.352;2023-05-19T00:39:00;11.60;;;7.07;;
18340;SDS011;9296;48.084;16.352;2023-05-19T00:41:27;11.63;;;7.10;;
18340;SDS011;9296;48.084;16.352;2023-05-19T00:50:02;13.48;;;7.05;;
18340;SDS011;9296;48.084;16.352;2023-05-19T00:52:29;11.23;;;7.10;;
18340;SDS011;9296;48.084;16.352;2023-05-19T00:54:58;12.45;;;7.60;;
18340;SDS011;9296;48.084;16.352;2023-05-19T00:57:25;12.18;;;7.10;;
18340;SDS011;9296;48.084;16.352;2023-05-19T01:03:05;13.98;;;8.07;;
18340;SDS011;9296;48.084;16.352;2023-05-19T01:05:35;13.60;;;7.85;;
18340;SDS011;9296;48.084;16.352;2023-05-19T01:08:02;13.93;;;8.05;;
18340;SDS011;9296;48.084;16.352;2023-05-19T01:10:31;14.20;;;8.10;;
18340;SDS011;9296;48.084;16.352;2023-05-19T01:12:58;12.15;;;8.32;;
18340;SDS011;9296;48.084;16.352;2023-05-19T01:18:31;14.30;;;8.45;;
18340;SDS011;9296;48.084;16.352;2023-05-19T01:21:03;16.13;;;8.55;;
18340;SDS011;9296;48.084;16.352;2023-05-19T01:23:36;14.60;;;8.85;;
18340;SDS011;9296;48.084;16.352;2023-05-19T01:26:21;13.55;;;8.65;;
18340;SDS011;9296;48.084;16.352;2023-05-19T01:31:40;12.15;;;8.25;;
18340;SDS011;9296;48.084;16.352;2023-05-19T01:34:08;13.60;;;8.93;;
18340;SDS011;9296;48.084;16.352;2023-05-19T01:36:38;13.05;;;9.38;;
18340;SDS011;9296;48.084;16.352;2023-05-19T01:39:09;15.50;;;9.55;;
18340;SDS011;9296;48.084;16.352;2023-05-19T01:41:37;14.18;;;8.85;;
18340;SDS011;9296;48.084;16.352;2023-05-19T01:44:07;16.75;;;9.80;;
18340;SDS011;9296;48.084;16.352;2023-05-19T01:46:35;15.32;;;8.98;;
18340;SDS011;9296;48.084;16.352;2023-05-19T01:49:04;14.15;;;9.45;;
18340;SDS011;9296;48.084;16.352;2023-05-19T01:51:32;14.68;;;9.07;;
18340;SDS011;9296;48.084;16.352;2023-05-19T01:53:59;17.30;;;9.88;;
18340;SDS011;9296;48.084;16.352;2023-05-19T01:56:31;14.02;;;9.15;;
18340;SDS011;9296;48.084;16.352;2023-05-19T01:59:02;16.00;;;9.68;;
18340;SDS011;9296;48.084;16.352;2023-05-19T02:01:33;17.27;;;10.48;;
18340;SDS011;9296;48.084;16.352;2023-05-19T02:04:09;15.13;;;10.10;;
18340;SDS011;9296;48.084;16.352;2023-05-19T02:06:40;17.60;;;10.73;;
18340;SDS011;9296;48.084;16.352;2023-05-19T02:09:10;14.57;;;9.70;;
18340;SDS011;9296;48.084;16.352;2023-05-19T02:11:39;16.85;;;10.60;;
18340;SDS011;9296;48.084;16.352;2023-05-19T02:17:11;15.95;;;10.32;;
18340;SDS011;9296;48.084;16.352;2023-05-19T02:19:40;17.48;;;10.70;;
18340;SDS011;9296;48.084;16.352;2023-05-19T02:22:08;14.05;;;10.30;;
18340;SDS011;9296;48.084;16.352;2023-05-19T02:24:36;17.10;;;10.70;;
18340;SDS011;9296;48.084;16.352;2023-05-19T02:27:03;19.50;;;10.23;;
18340;SDS011;9296;48.084;16.352;2023-05-19T02:29:31;18.80;;;11.23;;
18340;SDS011;9296;48.084;16.352;2023-05-19T02:31:59;17.77;;;11.38;;
18340;SDS011;9296;48.084;16.352;2023-05-19T02:34:26;17.90;;;11.48;;
18340;SDS011;9296;48.084;16.352;2023-05-19T02:36:54;20.67;;;11.45;;
18340;SDS011;9296;48.084;16.352;2023-05-19T02:39:22;17.45;;;11.07;;
18340;SDS011;9296;48.084;16.352;2023-05-19T02:41:49;20.25;;;11.55;;
18340;SDS011;9296;48.084;16.352;2023-05-19T02:44:16;17.88;;;11.13;;
18340;SDS011;9296;48.084;16.352;2023-05-19T02:46:43;15.15;;;10.80;;
18340;SDS011;9296;48.084;16.352;2023-05-19T02:49:11;16.85;;;10.57;;
18340;SDS011;9296;48.084;16.352;2023-05-19T02:51:38;15.27;;;11.02;;
18340;SDS011;9296;48.084;16.352;2023-05-19T02:54:06;18.95;;;11.30;;
18340;SDS011;9296;48.084;16.352;2023-05-19T02:56:34;16.33;;;11.63;;
18340;SDS011;9296;48.084;16.352;2023-05-19T02:59:01;17.63;;;11.85;;
18340;SDS011;9296;48.084;16.352;2023-05-19T03:04:32;19.17;;;12.57;;
18340;SDS011;9296;48.084;16.352;2023-05-19T03:07:06;19.83;;;12.45;;
18340;SDS011;9296;48.084;16.352;2023-05-19T03:09:36;19.83;;;12.73;;
18340;SDS011;9296;48.084;16.352;2023-05-19T03:12:03;19.55;;;11.80;;
18340;SDS011;9296;48.084;16.352;2023-05-19T03:20:38;21.20;;;12.70;;
18340;SDS011;9296;48.084;16.352;2023-05-19T03:23:06;17.77;;;12.45;;
18340;SDS011;9296;48.084;16.352;2023-05-19T03:25:35;19.63;;;12.60;;
18340;SDS011;9296;48.084;16.352;2023-05-19T03:28:02;19.65;;;13.07;;
18340;SDS011;9296;48.084;16.352;2023-05-19T03:33:52;20.75;;;13.60;;
18340;SDS011;9296;48.084;16.352;2023-05-19T03:36:19;23.40;;;13.38;;
18340;SDS011;9296;48.084;16.352;2023-05-19T03:38:46;22.58;;;14.00;;
18340;SDS011;9296;48.084;16.352;2023-05-19T03:41:15;19.35;;;13.60;;
18340;SDS011;9296;48.084;16.352;2023-05-19T03:43:42;21.75;;;14.07;;
18340;SDS011;9296;48.084;16.352;2023-05-19T03:46:28;22.00;;;13.43;;
18340;SDS011;9296;48.084;16.352;2023-05-19T03:48:55;21.05;;;14.07;;
18340;SDS011;9296;48.084;16.352;2023-05-19T03:51:22;20.63;;;13.88;;
18340;SDS011;9296;48.084;16.352;2023-05-19T03:53:50;20.77;;;14.55;;
18340;SDS011;9296;48.084;16.352;2023-05-19T03:56:18;21.05;;;14.25;;
18340;SDS011;9296;48.084;16.352;2023-05-19T03:58:47;20.88;;;13.45;;
18340;SDS011;9296;48.084;16.352;2023-05-19T04:04:18;23.13;;;14.07;;
18340;SDS011;9296;48.084;16.352;2023-05-19T04:06:45;22.95;;;13.93;;
18340;SDS011;9296;48.084;16.352;2023-05-19T04:09:13;22.30;;;13.85;;
18340;SDS011;9296;48.084;16.352;2023-05-19T04:11:42;20.90;;;13.38;;
18340;SDS011;9296;48.084;16.352;2023-05-19T04:14:10;21.95;;;13.93;;
18340;SDS011;9296;48.084;16.352;2023-05-19T04:19:40;23.65;;;14.32;;
18340;SDS011;9296;48.084;16.352;2023-05-19T04:22:07;19.38;;;13.60;;
18340;SDS011;9296;48.084;16.352;2023-05-19T04:24:35;20.95;;;14.00;;
18340;SDS011;9296;48.084;16.352;2023-05-19T04:27:03;22.17;;;13.65;;
18340;SDS011;9296;48.084;16.352;2023-05-19T04:29:35;20.58;;;14.45;;
18340;SDS011;9296;48.084;16.352;2023-05-19T04:32:04;20.92;;;14.38;;
18340;SDS011;9296;48.084;16.352;2023-05-19T04:34:32;21.55;;;14.13;;
18340;SDS011;9296;48.084;16.352;2023-05-19T04:36:59;20.02;;;13.13;;
18340;SDS011;9296;48.084;16.352;2023-05-19T04:39:26;19.63;;;13.85;;
18340;SDS011;9296;48.084;16.352;2023-05-19T04:41:53;21.42;;;13.27;;
18340;SDS011;9296;48.084;16.352;2023-05-19T04:44:22;21.42;;;13.73;;
18340;SDS011;9296;48.084;16.352;2023-05-19T04:49:53;18.98;;;12.73;;
18340;SDS011;9296;48.084;16.352;2023-05-19T04:52:20;19.52;;;12.25;;
18340;SDS011;9296;48.084;16.352;2023-05-19T04:54:48;18.98;;;12.93;;
18340;SDS011;9296;48.084;16.352;2023-05-19T04:57:15;16.55;;;11.85;;
18340;SDS011;9296;48.084;16.352;2023-05-19T05:05:50;13.95;;;9.55;;
18340;SDS011;9296;48.084;16.352;2023-05-19T05:08:18;15.88;;;10.35;;
18340;SDS011;9296;48.084;16.352;2023-05-19T05:10:47;15.52;;;10.68;;
18340;SDS011;9296;48.084;16.352;2023-05-19T05:13:15;14.98;;;10.05;;
18340;SDS011;9296;48.084;16.352;2023-05-19T05:18:45;13.10;;;9.65;;
18340;SDS011;9296;48.084;16.352;2023-05-19T05:21:14;15.00;;;10.30;;
18340;SDS011;9296;48.084;16.352;2023-05-19T05:23:42;14.13;;;9.50;;
18340;SDS011;9296;48.084;16.352;2023-05-19T05:26:12;14.00;;;9.55;;
18340;SDS011;9296;48.084;16.352;2023-05-19T05:28:42;11.38;;;8.15;;
18340;SDS011;9296;48.084;16.352;2023-05-19T05:34:13;10.27;;;7.65;;
18340;SDS011;9296;48.084;16.352;2023-05-19T05:36:41;10.52;;;7.40;;
18340;SDS011;9296;48.084;16.352;2023-05-19T05:39:08;10.13;;;7.38;;
18340;SDS011;9296;48.084;16.352;2023-05-19T05:41:36;10.77;;;7.55;;
18340;SDS011;9296;48.084;16.352;2023-05-19T05:44:03;11.23;;;7.95;;
18340;SDS011;9296;48.084;16.352;2023-05-19T05:49:34;9.93;;;7.13;;
18340;SDS011;9296;48.084;16.352;2023-05-19T05:52:04;9.95;;;6.85;;
18340;SDS011;9296;48.084;16.352;2023-05-19T05:54:31;9.68;;;6.82;;
18340;SDS011;9296;48.084;16.352;2023-05-19T05:56:59;8.73;;;6.78;;
18340;SDS011;9296;48.084;16.352;2023-05-19T05:59:26;9.10;;;6.65;;
18340;SDS011;9296;48.084;16.352;2023-05-19T06:04:57;9.85;;;6.40;;
18340;SDS011;9296;48.084;16.352;2023-05-19T06:07:25;8.07;;;5.75;;
18340;SDS011;9296;48.084;16.352;2023-05-19T06:09:53;12.32;;;6.28;;
18340;SDS011;9296;48.084;16.352;2023-05-19T06:12:20;7.05;;;5.70;;
18340;SDS011;9296;48.084;16.352;2023-05-19T06:14:48;7.97;;;5.47;;
18340;SDS011;9296;48.084;16.352;2023-05-19T06:17:16;8.10;;;5.97;;
18340;SDS011;9296;48.084;16.352;2023-05-19T06:19:43;11.32;;;6.00;;
18340;SDS011;9296;48.084;16.352;2023-05-19T06:22:10;11.25;;;5.72;;
18340;SDS011;9296;48.084;16.352;2023-05-19T06:24:39;9.70;;;6.20;;
18340;SDS011;9296;48.084;16.352;2023-05-19T06:27:06;9.98;;;5.95;;
18340;SDS011;9296;48.084;16.352;2023-05-19T06:29:33;10.48;;;5.55;;
18340;SDS011;9296;48.084;16.352;2023-05-19T06:35:04;7.22;;;5.63;;
18340;SDS011;9296;48.084;16.352;2023-05-19T06:37:31;8.82;;;5.97;;
18340;SDS011;9296;48.084;16.352;2023-05-19T06:40:00;10.68;;;6.03;;
18340;SDS011;9296;48.084;16.352;2023-05-19T06:42:27;8.90;;;5.95;;
18340;SDS011;9296;48.084;16.352;2023-05-19T06:44:55;9.45;;;6.03;;
18340;SDS011;9296;48.084;16.352;2023-05-19T06:50:09;7.63;;;5.55;;
18340;SDS011;9296;48.084;16.352;2023-05-19T06:52:36;10.35;;;6.32;;
18340;SDS011;9296;48.084;16.352;2023-05-19T06:55:05;6.72;;;5.75;;
18340;SDS011;9296;48.084;16.352;2023-05-19T06:57:32;9.00;;;6.05;;
18340;SDS011;9296;48.084;16.352;2023-05-19T07:00:00;10.77;;;6.47;;
18340;SDS011;9296;48.084;16.352;2023-05-19T07:02:28;10.85;;;6.03;;
18340;SDS011;9296;48.084;16.352;2023-05-19T07:04:55;8.68;;;6.10;;
18340;SDS011;9296;48.084;16.352;2023-05-19T07:07:22;8.93;;;5.93;;
18340;SDS011;9296;48.084;16.352;2023-05-19T07:09:50;10.32;;;6.43;;
18340;SDS011;9296;48.084;16.352;2023-05-19T07:12:19;8.75;;;5.88;;
18340;SDS011;9296;48.084;16.352;2023-05-19T07:14:46;7.80;;;6.07;;
18340;SDS011;9296;48.084;16.352;2023-05-19T07:20:17;9.18;;;5.95;;
18340;SDS011;9296;48.084;16.352;2023-05-19T07:22:44;7.85;;;5.70;;
18340;SDS011;9296;48.084;16.352;2023-05-19T07:25:11;9.82;;;5.80;;
18340;SDS011;9296;48.084;16.352;2023-05-19T07:27:40;7.43;;;5.35;;
18340;SDS011;9296;48.084;16.352;2023-05-19T07:30:07;8.25;;;5.75;;
18340;SDS011;9296;48.084;16.352;2023-05-19T07:32:35;8.15;;;5.75;;
18340;SDS011;9296;48.084;16.352;2023-05-19T07:35:02;8.48;;;5.72;;
18340;SDS011;9296;48.084;16.352;2023-05-19T07:37:29;7.03;;;5.10;;
18340;SDS011;9296;48.084;16.352;2023-05-19T07:39:56;9.30;;;6.10;;
18340;SDS011;9296;48.084;16.352;2023-05-19T07:42:24;7.10;;;5.45;;
18340;SDS011;9296;48.084;16.352;2023-05-19T07:44:52;7.85;;;6.13;;
18340;SDS011;9296;48.084;16.352;2023-05-19T07:50:23;9.38;;;6.70;;
18340;SDS011;9296;48.084;16.352;2023-05-19T07:52:50;9.00;;;6.30;;
18340;SDS011;9296;48.084;16.352;2023-05-19T07:55:18;9.65;;;6.22;;
18340;SDS011;9296;48.084;16.352;2023-05-19T07:57:47;8.25;;;5.90;;
18340;SDS011;9296;48.084;16.352;2023-05-19T08:00:16;8.70;;;6.38;;
18340;SDS011;9296;48.084;16.352;2023-05-19T08:02:44;9.48;;;6.18;;
18340;SDS011;9296;48.084;16.352;2023-05-19T08:05:11;9.20;;;5.90;;
18340;SDS011;9296;48.084;16.352;2023-05-19T08:07:39;9.48;;;6.32;;
18340;SDS011;9296;48.084;16.352;2023-05-19T08:10:06;9.80;;;6.60;;
18340;SDS011;9296;48.084;16.352;2023-05-19T08:12:33;9.95;;;6.85;;
18340;SDS011;9296;48.084;16.352;2023-05-19T08:15:01;11.15;;;7.18;;
18340;SDS011;9296;48.084;16.352;2023-05-19T08:17:29;10.10;;;7.55;;
18340;SDS011;9296;48.084;16.352;2023-05-19T08:19:56;10.90;;;7.20;;
18340;SDS011;9296;48.084;16.352;2023-05-19T08:22:24;10.50;;;7.32;;
18340;SDS011;9296;48.084;16.352;2023-05-19T08:24:51;10.18;;;7.15;;
18340;SDS011;9296;48.084;16.352;2023-05-19T08:27:18;9.20;;;7.07;;
18340;SDS011;9296;48.084;16.352;2023-05-19T08:29:45;8.43;;;6.78;;
18340;SDS011;9296;48.084;16.352;2023-05-19T08:32:13;9.52;;;7.05;;
18340;SDS011;9296;48.084;16.352;2023-05-19T08:34:41;10.48;;;7.30;;
18340;SDS011;9296;48.084;16.352;2023-05-19T08:37:09;10.48;;;7.35;;
18340;SDS011;9296;48.084;16.352;2023-05-19T08:39:36;10.68;;;7.10;;
18340;SDS011;9296;48.084;16.352;2023-05-19T08:42:03;9.05;;;7.32;;
18340;SDS011;9296;48.084;16.352;2023-05-19T08:44:31;11.88;;;7.05;;
18340;SDS011;9296;48.084;16.352;2023-05-19T08:50:05;8.32;;;6.35;;
18340;SDS011;9296;48.084;16.352;2023-05-19T08:52:40;8.32;;;6.30;;
18340;SDS011;9296;48.084;16.352;2023-05-19T08:55:12;11.00;;;6.20;;
18340;SDS011;9296;48.084;16.352;2023-05-19T08:57:41;8.10;;;6.40;;
18340;SDS011;9296;48.084;16.352;2023-05-19T09:00:09;7.63;;;6.13;;
18340;SDS011;9296;48.084;16.352;2023-05-19T09:02:37;9.60;;;6.90;;
18340;SDS011;9296;48.084;16.352;2023-05-19T09:05:05;9.82;;;7.05;;
18340;SDS011;9296;48.084;16.352;2023-05-19T09:07:33;8.57;;;6.25;;
18340;SDS011;9296;48.084;16.352;2023-05-19T09:10:01;10.30;;;7.20;;
18340;SDS011;9296;48.084;16.352;2023-05-19T09:12:30;8.20;;;6.93;;
18340;SDS011;9296;48.084;16.352;2023-05-19T09:14:57;10.35;;;7.18;;
18340;SDS011;9296;48.084;16.352;2023-05-19T09:17:25;10.70;;;6.80;;
18340;SDS011;9296;48.084;16.352;2023-05-19T09:19:52;9.60;;;6.53;;
18340;SDS011;9296;48.084;16.352;2023-05-19T09:22:21;7.18;;;6.13;;
18340;SDS011;9296;48.084;16.352;2023-05-19T09:24:50;7.25;;;6.03;;
18340;SDS011;9296;48.084;16.352;2023-05-19T09:27:20;9.68;;;6.78;;
18340;SDS011;9296;48.084;16.352;2023-05-19T09:29:47;8.48;;;7.03;;
18340;SDS011;9296;48.084;16.352;2023-05-19T09:32:19;8.50;;;6.55;;
18340;SDS011;9296;48.084;16.352;2023-05-19T09:34:51;9.52;;;7.30;;
18340;SDS011;9296;48.084;16.352;2023-05-19T09:37:22;9.55;;;7.72;;
18340;SDS011;9296;48.084;16.352;2023-05-19T09:39:49;11.45;;;7.45;;
18340;SDS011;9296;48.084;16.352;2023-05-19T09:42:23;10.65;;;6.78;;
18340;SDS011;9296;48.084;16.352;2023-05-19T09:44:57;9.48;;;6.85;;
18340;SDS011;9296;48.084;16.352;2023-05-19T09:47:25;7.40;;;6.32;;
18340;SDS011;9296;48.084;16.352;2023-05-19T09:49:53;8.52;;;6.72;;
18340;SDS011;9296;48.084;16.352;2023-05-19T09:52:22;7.47;;;5.97;;
18340;SDS011;9296;48.084;16.352;2023-05-19T09:54:49;8.20;;;5.90;;
18340;SDS011;9296;48.084;16.352;2023-05-19T09:57:17;5.85;;;5.00;;
18340;SDS011;9296;48.084;16.352;2023-05-19T09:59:51;8.40;;;5.47;;
18340;SDS011;9296;48.084;16.352;2023-05-19T10:05:21;6.45;;;5.18;;
18340;SDS011;9296;48.084;16.352;2023-05-19T10:07:51;5.10;;;4.50;;
18340;SDS011;9296;48.084;16.352;2023-05-19T10:10:19;5.78;;;5.18;;
18340;SDS011;9296;48.084;16.352;2023-05-19T10:12:46;7.82;;;5.22;;
18340;SDS011;9296;48.084;16.352;2023-05-19T10:15:14;6.82;;;5.22;;
18340;SDS011;9296;48.084;16.352;2023-05-19T10:17:42;6.72;;;5.45;;
18340;SDS011;9296;48.084;16.352;2023-05-19T10:20:11;7.90;;;5.07;;
18340;SDS011;9296;48.084;16.352;2023-05-19T10:22:38;6.05;;;5.20;;
18340;SDS011;9296;48.084;16.352;2023-05-19T10:25:08;5.95;;;5.15;;
18340;SDS011;9296;48.084;16.352;2023-05-19T10:27:36;6.45;;;5.20;;
18340;SDS011;9296;48.084;16.352;2023-05-19T10:30:06;6.70;;;5.88;;
18340;SDS011;9296;48.084;16.352;2023-05-19T10:35:45;7.53;;;5.43;;
18340;SDS011;9296;48.084;16.352;2023-05-19T10:38:20;6.32;;;5.70;;
18340;SDS011;9296;48.084;16.352;2023-05-19T10:40:55;7.05;;;5.50;;
18340;SDS011;9296;48.084;16.352;2023-05-19T10:43:24;6.85;;;5.28;;
18340;SDS011;9296;48.084;16.352;2023-05-19T10:45:57;7.93;;;6.40;;
18340;SDS011;9296;48.084;16.352;2023-05-19T10:51:27;8.30;;;5.93;;
18340;SDS011;9296;48.084;16.352;2023-05-19T10:53:56;6.90;;;5.93;;
18340;SDS011;9296;48.084;16.352;2023-05-19T10:56:29;7.65;;;6.38;;
18340;SDS011;9296;48.084;16.352;2023-05-19T10:58:58;7.85;;;5.20;;
18340;SDS011;9296;48.084;16.352;2023-05-19T11:01:29;7.20;;;5.75;;
18340;SDS011;9296;48.084;16.352;2023-05-19T11:03:58;7.35;;;5.45;;
18340;SDS011;9296;48.084;16.352;2023-05-19T11:06:30;7.18;;;5.63;;
18340;SDS011;9296;48.084;16.352;2023-05-19T11:08:58;8.07;;;6.13;;
18340;SDS011;9296;48.084;16.352;2023-05-19T11:11:26;7.10;;;5.05;;
18340;SDS011;9296;48.084;16.352;2023-05-19T11:14:10;7.63;;;5.45;;
18340;SDS011;9296;48.084;16.352;2023-05-19T11:23:04;5.03;;;4.38;;
18340;SDS011;9296;48.084;16.352;2023-05-19T11:25:50;6.85;;;4.72;;
18340;SDS011;9296;48.084;16.352;2023-05-19T11:28:19;6.75;;;4.88;;
18340;SDS011;9296;48.084;16.352;2023-05-19T11:30:49;6.63;;;4.90;;
18340;SDS011;9296;48.084;16.352;2023-05-19T11:36:20;4.32;;;3.92;;
18340;SDS011;9296;48.084;16.352;2023-05-19T11:38:48;7.45;;;4.40;;
18340;SDS011;9296;48.084;16.352;2023-05-19T11:41:17;4.85;;;4.22;;
18340;SDS011;9296;48.084;16.352;2023-05-19T11:43:46;6.05;;;3.75;;
18340;SDS011;9296;48.084;16.352;2023-05-19T11:46:13;4.97;;;3.70;;
18340;SDS011;9296;48.084;16.352;2023-05-19T11:48:40;5.55;;;3.85;;
18340;SDS011;9296;48.084;16.352;2023-05-19T11:51:07;5.22;;;3.85;;
18340;SDS011;9296;48.084;16.352;2023-05-19T11:53:35;4.43;;;3.33;;
18340;SDS011;9296;48.084;16.352;2023-05-19T11:56:02;5.22;;;3.85;;
18340;SDS011;9296;48.084;16.352;2023-05-19T11:58:31;4.10;;;3.40;;
18340;SDS011;9296;48.084;16.352;2023-05-19T12:01:02;4.22;;;3.50;;
18340;SDS011;9296;48.084;16.352;2023-05-19T12:06:34;3.78;;;3.40;;
18340;SDS011;9296;48.084;16.352;2023-05-19T12:09:03;3.85;;;3.10;;
18340;SDS011;9296;48.084;16.352;2023-05-19T12:11:31;6.15;;;3.20;;
18340;SDS011;9296;48.084;16.352;2023-05-19T12:14:00;3.50;;;2.95;;
18340;SDS011;9296;48.084;16.352;2023-05-19T12:22:34;4.30;;;2.70;;
18340;SDS011;9296;48.084;16.352;2023-05-19T12:25:01;3.53;;;3.22;;
18340;SDS011;9296;48.084;16.352;2023-05-19T12:27:29;3.30;;;2.78;;
18340;SDS011;9296;48.084;16.352;2023-05-19T12:30:03;4.43;;;3.30;;
18340;SDS011;9296;48.084;16.352;2023-05-19T12:32:31;3.33;;;2.90;;
18340;SDS011;9296;48.084;16.352;2023-05-19T12:35:00;5.47;;;3.10;;
18340;SDS011;9296;48.084;16.352;2023-05-19T12:37:28;3.33;;;3.03;;
18340;SDS011;9296;48.084;16.352;2023-05-19T12:39:55;4.07;;;2.95;;
18340;SDS011;9296;48.084;16.352;2023-05-19T12:42:24;4.63;;;3.28;;
18340;SDS011;9296;48.084;16.352;2023-05-19T12:44:55;3.10;;;2.80;;
18340;SDS011;9296;48.084;16.352;2023-05-19T12:53:28;3.60;;;2.63;;
18340;SDS011;9296;48.084;16.352;2023-05-19T12:55:56;3.65;;;3.00;;
18340;SDS011;9296;48.084;16.352;2023-05-19T12:58:23;3.53;;;2.92;;
18340;SDS011;9296;48.084;16.352;2023-05-19T13:00:50;3.50;;;3.17;;
18340;SDS011;9296;48.084;16.352;2023-05-19T13:06:25;5.30;;;2.90;;
18340;SDS011;9296;48.084;16.352;2023-05-19T13:08:54;4.22;;;3.03;;
18340;SDS011;9296;48.084;16.352;2023-05-19T13:11:21;4.22;;;3.10;;
18340;SDS011;9296;48.084;16.352;2023-05-19T13:13:48;3.50;;;3.20;;
18340;SDS011;9296;48.084;16.352;2023-05-19T13:16:15;3.63;;;2.75;;
18340;SDS011;9296;48.084;16.352;2023-05-19T13:18:43;3.78;;;3.05;;
18340;SDS011;9296;48.084;16.352;2023-05-19T13:21:10;2.85;;;2.60;;
18340;SDS011;9296;48.084;16.352;2023-05-19T13:23:37;4.53;;;2.47;;
18340;SDS011;9296;48.084;16.352;2023-05-19T13:26:06;2.55;;;2.25;;
18340;SDS011;9296;48.084;16.352;2023-05-19T13:28:35;4.05;;;2.80;;
18340;SDS011;9296;48.084;16.352;2023-05-19T13:31:02;3.35;;;2.72;;
18340;SDS011;9296;48.084;16.352;2023-05-19T13:36:43;2.88;;;2.40;;
18340;SDS011;9296;48.084;16.352;2023-05-19T13:39:12;3.08;;;2.10;;
18340;SDS011;9296;48.084;16.352;2023-05-19T13:41:41;3.05;;;2.45;;
18340;SDS011;9296;48.084;16.352;2023-05-19T13:44:08;2.75;;;2.10;;
18340;SDS011;9296;48.084;16.352;2023-05-19T13:46:35;2.00;;;1.80;;
18340;SDS011;9296;48.084;16.352;2023-05-19T13:52:06;2.42;;;1.92;;
18340;SDS011;9296;48.084;16.352;2023-05-19T13:54:33;2.10;;;1.90;;
18340;SDS011;9296;48.084;16.352;2023-05-19T13:57:02;2.60;;;1.98;;
18340;SDS011;9296;48.084;16.352;2023-05-19T13:59:30;2.10;;;1.90;;
18340;SDS011;9296;48.084;16.352;2023-05-19T14:01:57;3.00;;;2.25;;
18340;SDS011;9296;48.084;16.352;2023-05-19T14:04:24;3.97;;;2.17;;
18340;SDS011;9296;48.084;16.352;2023-05-19T14:06:52;2.00;;;1.80;;
18340;SDS011;9296;48.084;16.352;2023-05-19T14:09:19;2.40;;;2.20;;
18340;SDS011;9296;48.084;16.352;2023-05-19T14:11:46;3.80;;;2.30;;
18340;SDS011;9296;48.084;16.352;2023-05-19T14:14:15;4.93;;;2.47;;
18340;SDS011;9296;48.084;16.352;2023-05-19T14:16:42;2.53;;;2.03;;
18340;SDS011;9296;48.084;16.352;2023-05-19T14:22:13;2.85;;;2.05;;
18340;SDS011;9296;48.084;16.352;2023-05-19T14:24:41;2.58;;;2.08;;
18340;SDS011;9296;48.084;16.352;2023-05-19T14:27:08;2.65;;;2.45;;
18340;SDS011;9296;48.084;16.352;2023-05-19T14:29:37;3.47;;;3.00;;
18340;SDS011;9296;48.084;16.352;2023-05-19T14:32:07;8.98;;;7.05;;
18340;SDS011;9296;48.084;16.352;2023-05-19T14:34:34;3.60;;;3.30;;
18340;SDS011;9296;48.084;16.352;2023-05-19T14:37:01;3.20;;;2.58;;
18340;SDS011;9296;48.084;16.352;2023-05-19T14:39:29;3.40;;;3.10;;
18340;SDS011;9296;48.084;16.352;2023-05-19T14:41:56;5.07;;;3.50;;
18340;SDS011;9296;48.084;16.352;2023-05-19T14:44:28;3.90;;;3.58;;
18340;SDS011;9296;48.084;16.352;2023-05-19T14:46:57;3.80;;;3.50;;
18340;SDS011;9296;48.084;16.352;2023-05-19T14:49:25;3.65;;;3.35;;
18340;SDS011;9296;48.084;16.352;2023-05-19T14:51:52;10.00;;;3.90;;
18340;SDS011;9296;48.084;16.352;2023-05-19T14:54:19;4.32;;;3.45;;
18340;SDS011;9296;48.084;16.352;2023-05-19T14:56:46;4.47;;;3.45;;
18340;SDS011;9296;48.084;16.352;2023-05-19T14:59:13;4.70;;;4.20;;
18340;SDS011;9296;48.084;16.352;2023-05-19T15:01:41;5.85;;;4.40;;
18340;SDS011;9296;48.084;16.352;2023-05-19T15:07:13;4.47;;;4.07;;
18340;SDS011;9296;48.084;16.352;2023-05-19T15:09:40;4.32;;;3.88;;
18340;SDS011;9296;48.084;16.352;2023-05-19T15:12:07;4.45;;;3.97;;
18340;SDS011;9296;48.084;16.352;2023-05-19T15:14:35;4.45;;;3.67;;
18340;SDS011;9296;48.084;16.352;2023-05-19T15:20:06;4.57;;;3.88;;
18340;SDS011;9296;48.084;16.352;2023-05-19T15:22:35;4.18;;;3.78;;
18340;SDS011;9296;48.084;16.352;2023-05-19T15:25:02;4.22;;;3.83;;
18340;SDS011;9296;48.084;16.352;2023-05-19T15:27:29;5.07;;;4.50;;
18340;SDS011;9296;48.084;16.352;2023-05-19T15:29:56;5.00;;;4.53;;
18340;SDS011;9296;48.084;16.352;2023-05-19T15:38:34;7.22;;;4.63;;
18340;SDS011;9296;48.084;16.352;2023-05-19T15:41:04;5.32;;;4.82;;
18340;SDS011;9296;48.084;16.352;2023-05-19T15:43:31;5.10;;;4.70;;
18340;SDS011;9296;48.084;16.352;2023-05-19T15:45:59;5.40;;;4.88;;
18340;SDS011;9296;48.084;16.352;2023-05-19T15:48:26;6.18;;;5.00;;
18340;SDS011;9296;48.084;16.352;2023-05-19T15:50:53;5.43;;;4.93;;
18340;SDS011;9296;48.084;16.352;2023-05-19T15:53:22;6.07;;;5.47;;
18340;SDS011;9296;48.084;16.352;2023-05-19T15:55:50;5.88;;;5.38;;
18340;SDS011;9296;48.084;16.352;2023-05-19T15:58:18;5.82;;;5.32;;
18340;SDS011;9296;48.084;16.352;2023-05-19T16:00:45;6.55;;;5.95;;
18340;SDS011;9296;48.084;16.352;2023-05-19T16:03:12;6.85;;;6.18;;
18340;SDS011;9296;48.084;16.352;2023-05-19T16:05:40;6.43;;;5.82;;
18340;SDS011;9296;48.084;16.352;2023-05-19T16:08:07;6.93;;;6.22;;
18340;SDS011;9296;48.084;16.352;2023-05-19T16:10:34;6.75;;;6.15;;
18340;SDS011;9296;48.084;16.352;2023-05-19T16:13:03;6.38;;;5.35;;
18340;SDS011;9296;48.084;16.352;2023-05-19T16:15:30;5.78;;;5.25;;
18340;SDS011;9296;48.084;16.352;2023-05-19T16:24:01;5.32;;;4.82;;
18340;SDS011;9296;48.084;16.352;2023-05-19T16:26:28;5.90;;;5.22;;
18340;SDS011;9296;48.084;16.352;2023-05-19T16:28:58;6.05;;;5.45;;
18340;SDS011;9296;48.084;16.352;2023-05-19T16:31:26;5.93;;;5.38;;
18340;SDS011;9296;48.084;16.352;2023-05-19T16:33:53;6.00;;;5.38;;
18340;SDS011;9296;48.084;16.352;2023-05-19T16:36:20;6.35;;;5.30;;
18340;SDS011;9296;48.084;16.352;2023-05-19T16:38:47;5.68;;;5.03;;
18340;SDS011;9296;48.084;16.352;2023-05-19T16:41:15;5.80;;;5.20;;
18340;SDS011;9296;48.084;16.352;2023-05-19T16:43:42;6.65;;;5.22;;
18340;SDS011;9296;48.084;16.352;2023-05-19T16:46:10;7.15;;;5.40;;
18340;SDS011;9296;48.084;16.352;2023-05-19T16:51:41;5.25;;;4.75;;
18340;SDS011;9296;48.084;16.352;2023-05-19T16:54:08;5.63;;;5.13;;
18340;SDS011;9296;48.084;16.352;2023-05-19T16:56:35;6.20;;;5.22;;
18340;SDS011;9296;48.084;16.352;2023-05-19T16:59:03;5.25;;;4.75;;
18340;SDS011;9296;48.084;16.352;2023-05-19T17:01:31;6.35;;;5.47;;
18340;SDS011;9296;48.084;16.352;2023-05-19T17:03:58;5.22;;;4.70;;
18340;SDS011;9296;48.084;16.352;2023-05-19T17:06:25;5.38;;;4.20;;
18340;SDS011;9296;48.084;16.352;2023-05-19T17:08:53;5.60;;;4.57;;
18340;SDS011;9296;48.084;16.352;2023-05-19T17:11:20;5.15;;;4.65;;
18340;SDS011;9296;48.084;16.352;2023-05-19T17:13:47;5.10;;;4.60;;
18340;SDS011;9296;48.084;16.352;2023-05-19T17:16:14;5.00;;;4.50;;